Time;durP1;ratioP1;P1;durP2;ratioP2;P2;SDS_P1;SDS_P2;PMS_P1;PMS_P2;Temp;Humidity;BMP_temperature;BMP_pressure;BME280_temperature;BME280_humidity;BME280_pressure;Samples;Min_cycle;Max_cycle;Signal;HPM_P1;HPM_P2
2023/07/11 00:04:54;;;;;;;;;;;;;;;20.95;43.43457;101771.4;;;;-67
2023/07/11 00:09:28;;;;;;;0.2;0;;;;;;;;;;;;;-69
2023/07/11 00:09:54;;;;;;;;;;;;;;;20.91;43.4541;101771.8;;;;-69
2023/07/11 00:14:54;;;;;;;;;;;;;;;20.84;43.40137;101763.7;;;;-67
2023/07/11 00:19:57;;;;;;;;;;;;;;;20.79;43.46484;101756.5;;;;-68
2023/07/11 00:24:54;;;;;;;;;;;;;;;20.73;43.37891;101748.3;;;;-68
2023/07/11 00:29:54;;;;;;;;;;;;;;;20.64;43.49609;101747.8;;;;-68
2023/07/11 00:34:54;;;;;;;;;;;;;;;20.63;43.39063;101739.3;;;;-68
2023/07/11 00:39:32;;;;;;;0.3;0.1;;;;;;;;;;;;;-69
2023/07/11 00:39:54;;;;;;;;;;;;;;;20.57;43.62695;101729.3;;;;-68
2023/07/11 00:44:57;;;;;;;;;;;;;;;20.52;43.58691;101721.5;;;;-68
2023/07/11 00:49:58;;;;;;;;;;;;;;;20.46;43.70703;101721.3;;;;-69
2023/07/11 00:54:55;;;;;;;;;;;;;;;20.44;43.78516;101718.3;;;;-68
2023/07/11 00:59:54;;;;;;;;;;;;;;;20.39;43.82617;101706.1;;;;-69
2023/07/11 01:04:54;;;;;;;;;;;;;;;20.36;43.8916;101701.5;;;;-69
2023/07/11 01:09:35;;;;;;;0.2;0.1;;;;;;;;;;;;;-68
2023/07/11 01:09:57;;;;;;;;;;;;;;;20.31;43.72754;101703.9;;;;-69
2023/07/11 01:14:54;;;;;;;;;;;;;;;20.24;43.8916;101696.9;;;;-68
2023/07/11 01:19:55;;;;;;;;;;;;;;;20.17;43.91895;101684.4;;;;-67
2023/07/11 01:24:56;;;;;;;;;;;;;;;20.11;44.01563;101670.3;;;;-67
2023/07/11 01:29:55;;;;;;;;;;;;;;;20.07;44.04688;101666.6;;;;-68
2023/07/11 01:34:54;;;;;;;;;;;;;;;20.02;44.06348;101664;;;;-69
2023/07/11 01:39:38;;;;;;;0.2;0;;;;;;;;;;;;;-68
2023/07/11 01:39:54;;;;;;;;;;;;;;;19.98;44.24316;101650.4;;;;-68
2023/07/11 01:44:54;;;;;;;;;;;;;;;19.93;44.18066;101643.9;;;;-68
2023/07/11 01:49:54;;;;;;;;;;;;;;;19.9;44.38379;101632.6;;;;-68
2023/07/11 01:54:54;;;;;;;;;;;;;;;19.86;44.52734;101625.4;;;;-68
2023/07/11 01:59:54;;;;;;;;;;;;;;;19.81;44.52148;101624.5;;;;-68
2023/07/11 02:04:54;;;;;;;;;;;;;;;19.77;44.83887;101617.9;;;;-70
2023/07/11 02:09:41;;;;;;;0.2;0;;;;;;;;;;;;;-69
2023/07/11 02:09:54;;;;;;;;;;;;;;;19.73;45.25684;101611.7;;;;-68
2023/07/11 02:14:54;;;;;;;;;;;;;;;19.73;45.39355;101604.4;;;;-69
2023/07/11 02:19:54;;;;;;;;;;;;;;;19.69;45.52734;101588.7;;;;-67
2023/07/11 02:24:54;;;;;;;;;;;;;;;19.69;45.73242;101582.3;;;;-70
2023/07/11 02:29:54;;;;;;;;;;;;;;;19.68;46.41504;101566.4;;;;-69
2023/07/11 02:34:54;;;;;;;;;;;;;;;19.67;46.66699;101554.3;;;;-67
2023/07/11 02:39:44;;;;;;;0.4;0.2;;;;;;;;;;;;;-68
2023/07/11 02:39:54;;;;;;;;;;;;;;;19.66;47.04102;101540.7;;;;-69
2023/07/11 02:44:54;;;;;;;;;;;;;;;19.63;46.86719;101533.8;;;;-66
2023/07/11 02:49:54;;;;;;;;;;;;;;;19.63;46.96973;101524.3;;;;-68
2023/07/11 02:54:54;;;;;;;;;;;;;;;19.62;47.20801;101522.3;;;;-68
2023/07/11 02:59:55;;;;;;;;;;;;;;;19.6;47.19531;101517.7;;;;-69
2023/07/11 03:04:55;;;;;;;;;;;;;;;19.57;47.19141;101511.2;;;;-67
2023/07/11 03:09:47;;;;;;;0.2;0;;;;;;;;;;;;;-69
2023/07/11 03:09:57;;;;;;;;;;;;;;;19.56;47.88672;101511.1;;;;-71
2023/07/11 03:14:55;;;;;;;;;;;;;;;19.51;48.22266;101505.1;;;;-69
2023/07/11 03:19:54;;;;;;;;;;;;;;;19.5;47.9375;101494.1;;;;-68
2023/07/11 03:24:54;;;;;;;;;;;;;;;19.47;47.95703;101490.2;;;;-68
2023/07/11 03:29:54;;;;;;;;;;;;;;;19.4;48.13184;101485.8;;;;-68
2023/07/11 03:34:54;;;;;;;;;;;;;;;19.43;48.08887;101475;;;;-68
2023/07/11 03:39:51;;;;;;;0.4;0.1;;;;;;;;;;;;;-68
2023/07/11 03:40:01;;;;;;;;;;;;;;;19.37;48.44727;101472.8;;;;-68
2023/07/11 03:44:54;;;;;;;;;;;;;;;19.38;48.7207;101463.8;;;;-67
2023/07/11 03:49:54;;;;;;;;;;;;;;;19.39;48.54004;101456.7;;;;-70
2023/07/11 03:54:54;;;;;;;;;;;;;;;19.35;48.82129;101446.7;;;;-68
2023/07/11 03:59:54;;;;;;;;;;;;;;;19.34;49.29785;101443.6;;;;-68
2023/07/11 04:04:54;;;;;;;;;;;;;;;19.34;49.00293;101445;;;;-68
2023/07/11 04:09:54;;;;;;;0.3;0.1;;;;;;;;;;;;;-68
2023/07/11 04:10:05;;;;;;;;;;;;;;;19.31;49.08008;101442.9;;;;-68
2023/07/11 04:14:54;;;;;;;;;;;;;;;19.32;49.34277;101439.9;;;;-68
2023/07/11 04:19:54;;;;;;;;;;;;;;;19.33;49.36523;101438.5;;;;-68
2023/07/11 04:24:54;;;;;;;;;;;;;;;19.32;49.51367;101437.2;;;;-67
2023/07/11 04:29:54;;;;;;;;;;;;;;;19.34;49.62988;101428.3;;;;-68
2023/07/11 04:34:54;;;;;;;;;;;;;;;19.31;50.05859;101424.5;;;;-69
2023/07/11 04:39:54;;;;;;;;;;;;;;;19.31;50.09277;101423.3;;;;-69
2023/07/11 04:40:04;;;;;;;0.4;0.2;;;;;;;;;;;;;-69
2023/07/11 04:44:54;;;;;;;;;;;;;;;19.34;50.51758;101411.9;;;;-69
2023/07/11 04:49:54;;;;;;;;;;;;;;;19.37;50.76074;101402.5;;;;-69
2023/07/11 04:54:54;;;;;;;;;;;;;;;19.39;50.79688;101398.8;;;;-67
2023/07/11 04:59:54;;;;;;;;;;;;;;;19.43;51.41602;101392.7;;;;-68
2023/07/11 05:04:54;;;;;;;;;;;;;;;19.47;51.91113;101385.2;;;;-68
2023/07/11 05:09:54;;;;;;;;;;;;;;;19.56;51.86328;101378.6;;;;-68
2023/07/11 05:10:08;;;;;;;0.2;0;;;;;;;;;;;;;-68
2023/07/11 05:14:54;;;;;;;;;;;;;;;19.64;51.60059;101367;;;;-69
2023/07/11 05:19:54;;;;;;;;;;;;;;;19.72;53.86621;101358;;;;-68
2023/07/11 05:24:54;;;;;;;;;;;;;;;19.86;52.77637;101354.6;;;;-68
2023/07/11 05:29:54;;;;;;;;;;;;;;;20.03;53.48047;101349.9;;;;-68
2023/07/11 05:34:54;;;;;;;;;;;;;;;20.21;53.79883;101345.4;;;;-68
2023/07/11 05:39:54;;;;;;;;;;;;;;;20.42;53.28809;101338.9;;;;-69
2023/07/11 05:40:04;;;;;;;0.2;0.1;;;;;;;;;;;;;-69
2023/07/11 05:44:54;;;;;;;;;;;;;;;20.97;53.28613;101339.4;;;;-70
2023/07/11 05:49:54;;;;;;;;;;;;;;;21.32;52.75586;101339.9;;;;-68
2023/07/11 05:54:54;;;;;;;;;;;;;;;21.56;52.4873;101326.4;;;;-71
2023/07/11 05:59:57;;;;;;;;;;;;;;;21.62;53.37402;101318.2;;;;-68
2023/07/11 06:04:54;;;;;;;;;;;;;;;21.88;52.61621;101315.7;;;;-69
2023/07/11 06:09:55;;;;;;;;;;;;;;;22.18;52.07813;101311.5;;;;-68
2023/07/11 06:10:06;;;;;;;2.1;0.8;;;;;;;;;;;;;-69
2023/07/11 06:14:54;;;;;;;;;;;;;;;22.58;52.87012;101306.8;;;;-68
2023/07/11 06:19:54;;;;;;;;;;;;;;;23.12;51.48633;101302.8;;;;-68
2023/07/11 06:24:58;;;;;;;;;;;;;;;23.65;50.77734;101303.3;;;;-68
2023/07/11 06:29:54;;;;;;;;;;;;;;;23.94;50.38379;101302.4;;;;-68
2023/07/11 06:34:54;;;;;;;;;;;;;;;24.2;50.55176;101298.2;;;;-69
2023/07/11 06:39:54;;;;;;;;;;;;;;;24.59;49.77637;101294.2;;;;-70
2023/07/11 06:40:10;;;;;;;0.2;0.1;;;;;;;;;;;;;-70
2023/07/11 06:44:54;;;;;;;;;;;;;;;24.81;48.84375;101290.1;;;;-68
2023/07/11 06:49:54;;;;;;;;;;;;;;;24.88;48.94434;101291.4;;;;-70
2023/07/11 06:54:55;;;;;;;;;;;;;;;24.92;48.52246;101288.1;;;;-68
2023/07/11 06:59:57;;;;;;;;;;;;;;;25.1;49.07227;101287.9;;;;-69
2023/07/11 07:04:55;;;;;;;;;;;;;;;25.33;48.28906;101281.6;;;;-70
2023/07/11 07:09:56;;;;;;;;;;;;;;;25.88;47.63086;101276.6;;;;-69
2023/07/11 07:10:15;;;;;;;0.2;0.1;;;;;;;;;;;;;-67
2023/07/11 07:14:54;;;;;;;;;;;;;;;26.39;46.51465;101270.6;;;;-68
2023/07/11 07:19:57;;;;;;;;;;;;;;;27.04;44.75977;101269;;;;-68
2023/07/11 07:24:54;;;;;;;;;;;;;;;27.31;43.93848;101272.1;;;;-71
2023/07/11 07:29:54;;;;;;;;;;;;;;;27.62;43.36328;101271.4;;;;-69
2023/07/11 07:34:54;;;;;;;;;;;;;;;27.94;42.2998;101278.3;;;;-69
2023/07/11 07:39:54;;;;;;;;;;;;;;;27.98;42.17676;101274.6;;;;-69
2023/07/11 07:40:18;;;;;;;0.2;0.1;;;;;;;;;;;;;-70
2023/07/11 07:44:55;;;;;;;;;;;;;;;27.89;42.79688;101271.8;;;;-68
2023/07/11 07:49:57;;;;;;;;;;;;;;;28.11;42.53809;101260.6;;;;-69
2023/07/11 07:54:54;;;;;;;;;;;;;;;28.15;42.16797;101251;;;;-70
2023/07/11 07:59:54;;;;;;;;;;;;;;;28.3;42.10059;101256.4;;;;-70
2023/07/11 08:04:54;;;;;;;;;;;;;;;28.06;41.9043;101253.9;;;;-68
2023/07/11 08:09:54;;;;;;;;;;;;;;;28.51;41.25781;101253;;;;-70
2023/07/11 08:10:22;;;;;;;0.2;0;;;;;;;;;;;;;-71
2023/07/11 08:14:54;;;;;;;;;;;;;;;28.51;41.29297;101245.8;;;;-69
2023/07/11 08:19:54;;;;;;;;;;;;;;;28.69;41.22852;101245.2;;;;-69
2023/07/11 08:24:54;;;;;;;;;;;;;;;28.53;41.24707;101242.7;;;;-70
2023/07/11 08:29:54;;;;;;;;;;;;;;;28.65;41.11914;101247.4;;;;-70
2023/07/11 08:34:54;;;;;;;;;;;;;;;28.64;41.03711;101241.1;;;;-68
2023/07/11 08:39:54;;;;;;;;;;;;;;;28.89;40.97754;101248.7;;;;-69
2023/07/11 08:40:29;;;;;;;0.2;0;;;;;;;;;;;;;-70
2023/07/11 08:44:59;;;;;;;;;;;;;;;29.06;40.51465;101254.6;;;;-71
2023/07/11 08:49:56;;;;;;;;;;;;;;;28.75;40.66211;101260.3;;;;-69
2023/07/11 08:54:57;;;;;;;;;;;;;;;28.2;41.41504;101250;;;;-68
2023/07/11 08:59:58;;;;;;;;;;;;;;;28.27;41.57324;101256;;;;-68
2023/07/11 09:04:56;;;;;;;;;;;;;;;28.52;41.1543;101262.8;;;;-69
2023/07/11 09:09:54;;;;;;;;;;;;;;;29.02;40.73242;101267.1;;;;-68
2023/07/11 09:10:39;;;;;;;0.2;0;;;;;;;;;;;;;-68
2023/07/11 09:15:02;;;;;;;;;;;;;;;29.07;40.49121;101254.5;;;;-70
2023/07/11 09:20:04;;;;;;;;;;;;;;;29.49;39.98047;101246.6;;;;-69
2023/07/11 09:24:57;;;;;;;;;;;;;;;29.58;39.69629;101240.5;;;;-70
2023/07/11 09:29:55;;;;;;;;;;;;;;;29.36;40.15527;101241;;;;-68
2023/07/11 09:34:57;;;;;;;;;;;;;;;29.59;39.97754;101231.9;;;;-68
2023/07/11 09:39:58;;;;;;;;;;;;;;;29.66;39.91309;101226.6;;;;-67
2023/07/11 09:40:40;;;;;;;0.1;0;;;;;;;;;;;;;-68
2023/07/11 09:45:07;;;;;;;;;;;;;;;29.86;39.7793;101229.2;;;;-69
2023/07/11 09:49:57;;;;;;;;;;;;;;;30.05;39.4209;101233.4;;;;-68
2023/07/11 09:54:54;;;;;;;;;;;;;;;30.34;38.34473;101233.5;;;;-67
2023/07/11 09:59:59;;;;;;;;;;;;;;;29.94;38.34668;101238.6;;;;-68
2023/07/11 10:04:59;;;;;;;;;;;;;;;29.9;38.53027;101223.9;;;;-69
2023/07/11 10:09:55;;;;;;;;;;;;;;;29.97;38.33691;101229.5;;;;-69
2023/07/11 10:10:47;;;;;;;0.2;0;;;;;;;;;;;;;-67
2023/07/11 10:15:00;;;;;;;;;;;;;;;29.83;38.875;101221.7;;;;-68
2023/07/11 10:19:58;;;;;;;;;;;;;;;30.08;38.14746;101225;;;;-68
2023/07/11 10:24:54;;;;;;;;;;;;;;;30.24;38.33691;101227.2;;;;-68
2023/07/11 10:29:58;;;;;;;;;;;;;;;30.4;38.91309;101221.3;;;;-68
2023/07/11 10:34:57;;;;;;;;;;;;;;;30.76;38.02832;101220.5;;;;-68
2023/07/11 10:39:55;;;;;;;;;;;;;;;30.63;39.14355;101228.3;;;;-69
2023/07/11 10:40:50;;;;;;;0.2;0;;;;;;;;;;;;;-70
2023/07/11 10:45:01;;;;;;;;;;;;;;;30.62;37.81738;101214.5;;;;-67
2023/07/11 10:49:56;;;;;;;;;;;;;;;30.58;38.00195;101207.6;;;;-68
2023/07/11 10:54:56;;;;;;;;;;;;;;;30.74;38.49609;101199.8;;;;-68
2023/07/11 10:59:54;;;;;;;;;;;;;;;30.75;38.50781;101193.3;;;;-67
2023/07/11 11:05:13;;;;;;;;;;;;;;;30.99;38.62207;101201.6;;;;-69
2023/07/11 11:10:04;;;;;;;;;;;;;;;31.01;38.60156;101207.6;;;;-68
2023/07/11 11:11:01;;;;;;;0.1;0;;;;;;;;;;;;;-69
2023/07/11 11:14:56;;;;;;;;;;;;;;;31.1;38.93652;101195.7;;;;-68
2023/07/11 11:20:05;;;;;;;;;;;;;;;31.28;39.02344;101199.7;;;;-68
2023/07/11 11:25:00;;;;;;;;;;;;;;;31.44;39.2832;101196.4;;;;-68
2023/07/11 11:30:00;;;;;;;;;;;;;;;31.82;39.4209;101193.6;;;;-68
2023/07/11 11:35:05;;;;;;;;;;;;;;;31.9;38.83008;101198;;;;-69
2023/07/11 11:40:04;;;;;;;;;;;;;;;31.86;38.80273;101189.9;;;;-71
2023/07/11 11:41:02;;;;;;;0.1;0;;;;;;;;;;;;;-68
2023/07/11 11:44:58;;;;;;;;;;;;;;;31.91;39.78125;101196.6;;;;-68
2023/07/11 11:49:54;;;;;;;;;;;;;;;32.22;38.95117;101209.3;;;;-69
2023/07/11 11:54:54;;;;;;;;;;;;;;;31.97;39.62305;101197.7;;;;-68
2023/07/11 11:59:54;;;;;;;;;;;;;;;32.01;39.12012;101200.5;;;;-69
2023/07/11 12:05:08;;;;;;;;;;;;;;;32.11;39.26953;101203.8;;;;-69
2023/07/11 12:10:08;;;;;;;;;;;;;;;32.24;39.15137;101204.8;;;;-68
2023/07/11 12:11:18;;;;;;;0.1;0;;;;;;;;;;;;;-70
2023/07/11 12:15:05;;;;;;;;;;;;;;;32.33;39.4541;101196.2;;;;-69
2023/07/11 12:20:00;;;;;;;;;;;;;;;32.2;39.18457;101197.4;;;;-68
2023/07/11 12:25:06;;;;;;;;;;;;;;;32.5;39.84473;101197.1;;;;-68
2023/07/11 12:29:57;;;;;;;;;;;;;;;32.54;39.3418;101184;;;;-69
2023/07/11 12:34:57;;;;;;;;;;;;;;;32.64;39.43359;101184.7;;;;-68
2023/07/11 12:40:03;;;;;;;;;;;;;;;32.69;39.65039;101187.5;;;;-68
2023/07/11 12:41:20;;;;;;;0.1;0;;;;;;;;;;;;;-67
2023/07/11 12:44:54;;;;;;;;;;;;;;;32.76;39.10156;101180.4;;;;-68
2023/07/11 12:49:55;;;;;;;;;;;;;;;32.89;39.78516;101182.7;;;;-68
2023/07/11 12:54:54;;;;;;;;;;;;;;;32.92;39.92871;101191.8;;;;-70
2023/07/11 12:59:54;;;;;;;;;;;;;;;33.15;39.54883;101187.4;;;;-69
2023/07/11 13:04:57;;;;;;;;;;;;;;;33.06;39.68164;101184.3;;;;-69
2023/07/11 13:09:56;;;;;;;;;;;;;;;33.23;39.77832;101173.8;;;;-69
2023/07/11 13:11:23;;;;;;;0.2;0;;;;;;;;;;;;;-68
2023/07/11 13:14:55;;;;;;;;;;;;;;;33.28;39.35938;101177.3;;;;-67
2023/07/11 13:19:58;;;;;;;;;;;;;;;33.33;39.12695;101167.1;;;;-68
2023/07/11 13:24:58;;;;;;;;;;;;;;;33.24;39.12012;101173.1;;;;-69
2023/07/11 13:30:16;;;;;;;;;;;;;;;33.09;40.00293;101168.1;;;;-69
2023/07/11 13:34:55;;;;;;;;;;;;;;;32.94;39.43555;101172.2;;;;-68
2023/07/11 13:39:54;;;;;;;;;;;;;;;32.84;39.88672;101171.2;;;;-68
2023/07/11 13:41:26;;;;;;;0.1;0;;;;;;;;;;;;;-68
2023/07/11 13:44:58;;;;;;;;;;;;;;;32.69;39.88477;101169;;;;-70
2023/07/11 13:50:00;;;;;;;;;;;;;;;32.59;40.15918;101170.4;;;;-73
2023/07/11 13:54:58;;;;;;;;;;;;;;;32.56;39.33301;101161.5;;;;-71
2023/07/11 13:59:54;;;;;;;;;;;;;;;32.13;40.35352;101160.3;;;;-69
2023/07/11 14:04:55;;;;;;;;;;;;;;;32.16;40.15625;101155.2;;;;-68
2023/07/11 14:09:54;;;;;;;;;;;;;;;32.18;40.11133;101149.7;;;;-71
2023/07/11 14:11:33;;;;;;;0.1;0;;;;;;;;;;;;;-70
2023/07/11 14:14:55;;;;;;;;;;;;;;;32.38;39.82324;101147.8;;;;-69
2023/07/11 14:19:54;;;;;;;;;;;;;;;32.5;39.72754;101144.5;;;;-67
2023/07/11 14:24:57;;;;;;;;;;;;;;;32.45;39.3584;101141.8;;;;-70
2023/07/11 14:29:56;;;;;;;;;;;;;;;32.2;40.19531;101148.6;;;;-71
2023/07/11 14:34:54;;;;;;;;;;;;;;;32.35;39.93848;101148.4;;;;-71
2023/07/11 14:39:55;;;;;;;;;;;;;;;32.54;39.67188;101153.1;;;;-69
2023/07/11 14:41:36;;;;;;;0.1;0;;;;;;;;;;;;;-68
2023/07/11 14:44:54;;;;;;;;;;;;;;;32.69;39.24902;101153.5;;;;-68
2023/07/11 14:49:58;;;;;;;;;;;;;;;32.63;39.29102;101146.9;;;;-69
2023/07/11 14:54:54;;;;;;;;;;;;;;;32.41;39.40234;101136.9;;;;-68
2023/07/11 14:59:55;;;;;;;;;;;;;;;32.21;39.77246;101137.8;;;;-69
2023/07/11 15:04:56;;;;;;;;;;;;;;;31.97;40.11621;101136.1;;;;-68
2023/07/11 15:09:54;;;;;;;;;;;;;;;31.95;40.29102;101121.5;;;;-69
2023/07/11 15:11:47;;;;;;;0.1;0;;;;;;;;;;;;;-70
2023/07/11 15:14:55;;;;;;;;;;;;;;;31.91;40.15723;101131;;;;-72
2023/07/11 15:19:57;;;;;;;;;;;;;;;31.76;40.42676;101135.9;;;;-70
2023/07/11 15:24:54;;;;;;;;;;;;;;;31.72;40.37695;101122.2;;;;-69
2023/07/11 15:29:56;;;;;;;;;;;;;;;31.68;40.51367;101122.4;;;;-67
2023/07/11 15:34:54;;;;;;;;;;;;;;;31.57;40.66699;101114.4;;;;-69
2023/07/11 15:39:54;;;;;;;;;;;;;;;31.48;40.54297;101121.1;;;;-69
2023/07/11 15:41:49;;;;;;;0.1;0;;;;;;;;;;;;;-69
2023/07/11 15:44:59;;;;;;;;;;;;;;;31.38;40.66309;101118.7;;;;-70
2023/07/11 15:49:54;;;;;;;;;;;;;;;31.2;40.85742;101109.5;;;;-68
2023/07/11 15:54:54;;;;;;;;;;;;;;;31.04;41.14844;101104.8;;;;-69
2023/07/11 15:59:54;;;;;;;;;;;;;;;30.94;41.09277;101097.4;;;;-73
2023/07/11 16:04:55;;;;;;;;;;;;;;;30.9;41.18262;101095.6;;;;-71
2023/07/11 16:09:54;;;;;;;;;;;;;;;30.81;41.1748;101090.8;;;;-71
2023/07/11 16:11:54;;;;;;;0.2;0;;;;;;;;;;;;;-71
2023/07/11 16:14:55;;;;;;;;;;;;;;;30.77;41.21777;101073.6;;;;-73
2023/07/11 16:20:10;;;;;;;;;;;;;;;30.8;41.12598;101063.7;;;;-68
2023/07/11 16:24:57;;;;;;;;;;;;;;;30.79;41.11426;101064.1;;;;-71
2023/07/11 16:29:54;;;;;;;;;;;;;;;30.86;41.08496;101062.5;;;;-68
2023/07/11 16:34:54;;;;;;;;;;;;;;;30.76;41.2168;101060.6;;;;-68
2023/07/11 16:39:54;;;;;;;;;;;;;;;30.7;41.39941;101054.1;;;;-71
2023/07/11 16:41:59;;;;;;;0.1;0;;;;;;;;;;;;;-69
2023/07/11 16:44:57;;;;;;;;;;;;;;;30.62;41.35547;101057.6;;;;-69
2023/07/11 16:49:54;;;;;;;;;;;;;;;30.51;41.63965;101049.1;;;;-70
2023/07/11 16:55:00;;;;;;;;;;;;;;;30.52;41.61719;101041.3;;;;-69
2023/07/11 16:59:55;;;;;;;;;;;;;;;30.38;41.66309;101041.7;;;;-70
2023/07/11 17:04:58;;;;;;;;;;;;;;;30.31;41.75;101034.2;;;;-68
2023/07/11 17:09:54;;;;;;;;;;;;;;;30.37;41.71973;101042.5;;;;-69
2023/07/11 17:12:05;;;;;;;0.1;0;;;;;;;;;;;;;-69
2023/07/11 17:14:56;;;;;;;;;;;;;;;30.27;41.74609;101031.4;;;;-69
2023/07/11 17:19:54;;;;;;;;;;;;;;;30.14;42.0498;101028.9;;;;-69
2023/07/11 17:24:54;;;;;;;;;;;;;;;30.04;42.22754;101030.1;;;;-69
2023/07/11 17:29:55;;;;;;;;;;;;;;;29.96;42.34863;101034.5;;;;-69
2023/07/11 17:34:59;;;;;;;;;;;;;;;29.8;42.56738;101031.6;;;;-70
2023/07/11 17:39:54;;;;;;;;;;;;;;;29.67;42.61328;101031.1;;;;-69
2023/07/11 17:42:15;;;;;;;0.1;0;;;;;;;;;;;;;-69
2023/07/11 17:44:55;;;;;;;;;;;;;;;29.45;42.90918;101016.7;;;;-69
2023/07/11 17:49:56;;;;;;;;;;;;;;;29.21;43.17773;101013.5;;;;-68
2023/07/11 17:54:56;;;;;;;;;;;;;;;29;43.56641;101004.4;;;;-69
2023/07/11 17:59:54;;;;;;;;;;;;;;;28.81;43.72168;100997.9;;;;-70
2023/07/11 18:04:58;;;;;;;;;;;;;;;28.55;44.12891;100998.5;;;;-68
2023/07/11 18:09:56;;;;;;;;;;;;;;;28.43;44.17578;101005.5;;;;-70
2023/07/11 18:12:19;;;;;;;0.3;0.2;;;;;;;;;;;;;-68
2023/07/11 18:14:54;;;;;;;;;;;;;;;28.35;44.21387;101002;;;;-69
2023/07/11 18:19:55;;;;;;;;;;;;;;;28.15;44.71777;100996.3;;;;-71
2023/07/11 18:24:55;;;;;;;;;;;;;;;27.88;44.9707;100985.8;;;;-69
2023/07/11 18:29:54;;;;;;;;;;;;;;;27.72;45.16406;100968.3;;;;-70
2023/07/11 18:34:55;;;;;;;;;;;;;;;27.53;45.32031;100968.4;;;;-69
2023/07/11 18:39:54;;;;;;;;;;;;;;;27.29;45.55176;100952.8;;;;-69
2023/07/11 18:42:22;;;;;;;0.1;0;;;;;;;;;;;;;-68
2023/07/11 18:44:55;;;;;;;;;;;;;;;27.12;44.97656;100945.6;;;;-73
2023/07/11 18:49:56;;;;;;;;;;;;;;;26.9;45.5;100953.3;;;;-71
2023/07/11 18:54:54;;;;;;;;;;;;;;;26.68;45.1416;100955.8;;;;-71
2023/07/11 18:59:55;;;;;;;;;;;;;;;26.49;44.24121;100942.3;;;;-72
2023/07/11 19:04:55;;;;;;;;;;;;;;;26.35;44.67871;100941.7;;;;-71
2023/07/11 19:09:56;;;;;;;;;;;;;;;26.2;44.47949;100938.8;;;;-73
2023/07/11 19:12:32;;;;;;;0.1;0;;;;;;;;;;;;;-71
2023/07/11 19:14:54;;;;;;;;;;;;;;;26.06;44.04785;100938.3;;;;-72
2023/07/11 19:19:57;;;;;;;;;;;;;;;25.92;44.46289;100940.8;;;;-71
2023/07/11 19:24:54;;;;;;;;;;;;;;;25.74;44.61816;100953.7;;;;-74
2023/07/11 19:29:55;;;;;;;;;;;;;;;25.55;44.76172;100921.3;;;;-72
2023/07/11 19:34:54;;;;;;;;;;;;;;;25.41;44.70215;100916.8;;;;-73
2023/07/11 19:39:54;;;;;;;;;;;;;;;25.26;44.64063;100892.6;;;;-71
2023/07/11 19:42:29;;;;;;;0.2;0;;;;;;;;;;;;;-71
2023/07/11 19:44:54;;;;;;;;;;;;;;;25.11;45.05371;100892.4;;;;-72
2023/07/11 19:49:54;;;;;;;;;;;;;;;24.93;45.50977;100910.2;;;;-72
2023/07/11 19:54:54;;;;;;;;;;;;;;;24.75;45.43359;100912.2;;;;-71
2023/07/11 19:59:54;;;;;;;;;;;;;;;24.58;45.7627;100927.5;;;;-73
2023/07/11 20:04:55;;;;;;;;;;;;;;;24.41;45.95313;100937.2;;;;-74
2023/07/11 20:09:54;;;;;;;;;;;;;;;24.26;45.85645;100910.2;;;;-71
2023/07/11 20:12:39;;;;;;;0.2;0;;;;;;;;;;;;;-73
2023/07/11 20:14:54;;;;;;;;;;;;;;;24.09;46.43848;100902.9;;;;-73
2023/07/11 20:19:54;;;;;;;;;;;;;;;23.93;46.3418;100926.1;;;;-72
2023/07/11 20:24:54;;;;;;;;;;;;;;;23.81;46.47949;100916.5;;;;-73
2023/07/11 20:29:54;;;;;;;;;;;;;;;23.67;46.30273;100917.7;;;;-69
2023/07/11 20:34:54;;;;;;;;;;;;;;;23.51;46.5752;100914.5;;;;-70
2023/07/11 20:39:54;;;;;;;;;;;;;;;23.35;46.74316;100889.9;;;;-73
2023/07/11 20:42:40;;;;;;;0.2;0;;;;;;;;;;;;;-71
2023/07/11 20:44:54;;;;;;;;;;;;;;;23.23;46.94727;100883.7;;;;-71
2023/07/11 20:49:55;;;;;;;;;;;;;;;23.09;47.2207;100889.4;;;;-68
2023/07/11 20:54:57;;;;;;;;;;;;;;;22.92;47.26074;100899;;;;-67
2023/07/11 20:59:54;;;;;;;;;;;;;;;22.78;47.60254;100887.8;;;;-71
2023/07/11 21:04:54;;;;;;;;;;;;;;;22.67;47.73926;100887.3;;;;-67
2023/07/11 21:09:54;;;;;;;;;;;;;;;22.52;47.90625;100889.7;;;;-68
2023/07/11 21:12:41;;;;;;;0.2;0;;;;;;;;;;;;;-69
2023/07/11 21:14:54;;;;;;;;;;;;;;;22.41;48.95117;100912;;;;-69
2023/07/11 21:19:56;;;;;;;;;;;;;;;22.22;49.55957;100903;;;;-69
2023/07/11 21:24:54;;;;;;;;;;;;;;;22.11;49.0332;100899.8;;;;-68
2023/07/11 21:29:54;;;;;;;;;;;;;;;22;49.27344;100917.3;;;;-70
2023/07/11 21:34:54;;;;;;;;;;;;;;;21.88;49.71875;100914.6;;;;-68
2023/07/11 21:39:56;;;;;;;;;;;;;;;21.79;49.68555;100922.8;;;;-70
2023/07/11 21:42:46;;;;;;;0.2;0.1;;;;;;;;;;;;;-68
2023/07/11 21:44:55;;;;;;;;;;;;;;;21.71;49.99609;100918.7;;;;-70
2023/07/11 21:49:54;;;;;;;;;;;;;;;21.61;50.45605;100923.8;;;;-68
2023/07/11 21:54:55;;;;;;;;;;;;;;;21.51;50.53516;100924.6;;;;-69
2023/07/11 21:59:54;;;;;;;;;;;;;;;21.39;51.47168;100915.7;;;;-68
2023/07/11 22:04:54;;;;;;;;;;;;;;;21.34;50.81348;100921.4;;;;-69
2023/07/11 22:09:54;;;;;;;;;;;;;;;21.26;50.78125;100929.7;;;;-71
2023/07/11 22:12:47;;;;;;;0.2;0;;;;;;;;;;;;;-70
2023/07/11 22:14:54;;;;;;;;;;;;;;;21.16;51.13672;100935.7;;;;-69
2023/07/11 22:19:54;;;;;;;;;;;;;;;21.15;50.94043;100932.6;;;;-69
2023/07/11 22:24:54;;;;;;;;;;;;;;;21.08;51.41309;100921.6;;;;-70
2023/07/11 22:29:54;;;;;;;;;;;;;;;21.03;51.6123;100918.2;;;;-67
2023/07/11 22:34:56;;;;;;;;;;;;;;;21.02;51.83984;100913.4;;;;-69
2023/07/11 22:39:54;;;;;;;;;;;;;;;20.95;52.50586;100916.7;;;;-68
2023/07/11 22:42:50;;;;;;;0.3;0.1;;;;;;;;;;;;;-69
2023/07/11 22:44:54;;;;;;;;;;;;;;;20.96;52.54199;100912;;;;-68
2023/07/11 22:49:54;;;;;;;;;;;;;;;20.88;53.08105;100903.2;;;;-68
2023/07/11 22:54:54;;;;;;;;;;;;;;;20.81;53.49414;100907.3;;;;-68
2023/07/11 22:59:56;;;;;;;;;;;;;;;20.78;53.43457;100906.5;;;;-68
2023/07/11 23:04:54;;;;;;;;;;;;;;;20.62;53.7002;100898.4;;;;-69
2023/07/11 23:09:54;;;;;;;;;;;;;;;20.58;53.96973;100890.4;;;;-70
2023/07/11 23:12:54;;;;;;;0.5;0.1;;;;;;;;;;;;;-70
2023/07/11 23:14:54;;;;;;;;;;;;;;;20.49;54.08398;100888.5;;;;-69
2023/07/11 23:19:54;;;;;;;;;;;;;;;20.42;53.8584;100892.4;;;;-69
2023/07/11 23:24:54;;;;;;;;;;;;;;;20.33;54.18945;100881.7;;;;-69
2023/07/11 23:29:54;;;;;;;;;;;;;;;20.28;54.14941;100884.2;;;;-70
2023/07/11 23:34:54;;;;;;;;;;;;;;;20.2;54.69824;100883.6;;;;-69
2023/07/11 23:39:54;;;;;;;;;;;;;;;20.21;54.3457;100893.5;;;;-70
2023/07/11 23:42:57;;;;;;;0.2;0;;;;;;;;;;;;;-68
2023/07/11 23:44:54;;;;;;;;;;;;;;;20.18;54.38672;100896.1;;;;-69
2023/07/11 23:49:54;;;;;;;;;;;;;;;20.15;54.58887;100894;;;;-68
2023/07/11 23:54:54;;;;;;;;;;;;;;;20.08;54.4668;100896.8;;;;-69
